createdAt,value
2018-04-19T00:00:34.249Z,17.10
2018-04-19T00:03:01.860Z,17.10
2018-04-19T00:05:29.339Z,17.10
2018-04-19T00:07:56.812Z,17.10
2018-04-19T00:10:24.311Z,17.10
2018-04-19T00:12:52.557Z,17.00
2018-04-19T00:15:20.044Z,16.90
2018-04-19T00:17:48.311Z,16.90
2018-04-19T00:20:16.562Z,16.80
2018-04-19T00:22:44.044Z,16.70
2018-04-19T00:25:12.318Z,16.70
2018-04-19T00:27:40.575Z,16.60
2018-04-19T00:30:08.068Z,16.60
2018-04-19T00:32:35.617Z,16.50
2018-04-19T00:35:04.910Z,16.50
2018-04-19T00:37:33.184Z,16.50
2018-04-19T00:40:01.463Z,16.50
2018-04-19T00:42:29.704Z,16.40
2018-04-19T00:44:57.229Z,16.40
2018-04-19T00:47:24.719Z,16.40
2018-04-19T00:49:52.212Z,16.40
2018-04-19T00:52:20.472Z,16.40
2018-04-19T00:54:47.980Z,16.30
2018-04-19T00:57:15.470Z,16.40
2018-04-19T00:59:42.990Z,16.30
2018-04-19T01:02:10.532Z,16.30
2018-04-19T01:04:38.053Z,16.30
2018-04-19T01:07:05.528Z,16.20
2018-04-19T01:09:33.818Z,16.20
2018-04-19T01:12:02.071Z,16.10
2018-04-19T01:14:29.564Z,16.10
2018-04-19T01:16:57.067Z,16.10
2018-04-19T01:19:24.549Z,16.10
2018-04-19T01:21:52.013Z,16.00
2018-04-19T01:24:20.302Z,15.90
2018-04-19T01:26:48.554Z,15.90
2018-04-19T01:29:17.548Z,15.80
2018-04-19T01:31:45.015Z,15.80
2018-04-19T01:34:12.494Z,15.80
2018-04-19T01:36:39.983Z,15.80
2018-04-19T01:39:07.463Z,15.70
2018-04-19T01:41:34.958Z,15.70
2018-04-19T01:44:03.216Z,15.60
2018-04-19T01:46:30.713Z,15.60
2018-04-19T01:48:58.190Z,15.60
2018-04-19T01:51:25.703Z,15.60
2018-04-19T01:53:53.944Z,15.60
2018-04-19T01:56:21.548Z,15.50
2018-04-19T01:58:49.026Z,15.50
2018-04-19T02:01:16.533Z,15.50
2018-04-19T02:03:44.797Z,15.40
2018-04-19T02:06:12.313Z,15.40
2018-04-19T02:08:39.792Z,15.40
2018-04-19T02:11:07.286Z,15.40
2018-04-19T02:13:34.803Z,15.40
2018-04-19T02:16:02.339Z,15.30
2018-04-19T02:18:29.822Z,15.30
2018-04-19T02:20:57.312Z,15.20
2018-04-19T02:23:24.927Z,15.30
2018-04-19T02:25:52.420Z,15.20
2018-04-19T02:28:19.893Z,15.20
2018-04-19T02:30:47.375Z,15.10
2018-04-19T02:33:14.956Z,15.10
2018-04-19T02:35:42.509Z,15.10
2018-04-19T02:38:10.041Z,15.10
2018-04-19T02:40:38.322Z,15.00
2018-04-19T02:43:06.590Z,15.00
2018-04-19T02:45:35.472Z,15.00
2018-04-19T02:48:03.732Z,15.00
2018-04-19T02:50:31.311Z,15.00
2018-04-19T02:52:58.727Z,15.00
2018-04-19T02:55:26.885Z,14.90
2018-04-19T02:57:54.363Z,14.90
2018-04-19T03:00:21.857Z,14.90
2018-04-19T03:02:50.093Z,14.90
2018-04-19T03:05:17.586Z,14.80
2018-04-19T03:07:45.065Z,14.80
2018-04-19T03:10:12.572Z,14.80
2018-04-19T03:12:40.062Z,14.80
2018-04-19T03:15:08.329Z,14.80
2018-04-19T03:17:35.833Z,14.80
2018-04-19T03:20:03.338Z,14.80
2018-04-19T03:22:30.824Z,14.70
2018-04-19T03:24:59.071Z,14.70
2018-04-19T03:27:26.555Z,14.70
2018-04-19T03:29:54.821Z,14.60
2018-04-19T03:32:23.064Z,14.60
2018-04-19T03:34:50.556Z,14.60
2018-04-19T03:37:18.786Z,14.40
2018-04-19T03:39:46.289Z,14.40
2018-04-19T03:42:14.532Z,14.40
2018-04-19T03:44:42.028Z,14.40
2018-04-19T03:47:10.286Z,14.40
2018-04-19T03:49:37.762Z,14.40
2018-04-19T03:52:06.047Z,14.40
2018-04-19T03:54:33.525Z,14.40
2018-04-19T03:57:01.020Z,14.30
2018-04-19T03:59:28.555Z,14.30
2018-04-19T04:01:56.058Z,14.30
2018-04-19T04:04:24.301Z,14.20
2018-04-19T04:06:51.787Z,14.20
2018-04-19T04:09:20.069Z,14.20
2018-04-19T04:11:48.325Z,14.20
2018-04-19T04:14:15.924Z,14.10
2018-04-19T04:16:56.222Z,14.10
2018-04-19T04:19:35.536Z,14.10
2018-04-19T04:25:01.576Z,14.00
2018-04-19T04:27:29.059Z,14.00
2018-04-19T04:29:56.530Z,13.90
2018-04-19T04:32:25.525Z,13.90
2018-04-19T04:34:52.997Z,13.90
2018-04-19T04:37:21.268Z,14.00
2018-04-19T04:39:48.743Z,14.00
2018-04-19T04:42:17.036Z,14.00
2018-04-19T04:44:45.427Z,13.90
2018-04-19T04:47:12.988Z,14.00
2018-04-19T04:49:41.090Z,14.00
2018-04-19T04:52:08.596Z,14.00
2018-04-19T04:54:36.884Z,13.90
2018-04-19T04:57:04.415Z,13.90
2018-04-19T04:59:32.663Z,13.90
2018-04-19T05:02:00.170Z,13.90
2018-04-19T05:04:28.411Z,13.90
2018-04-19T05:06:55.900Z,13.80
2018-04-19T05:09:24.138Z,13.90
2018-04-19T05:11:52.406Z,13.90
2018-04-19T05:14:19.874Z,13.90
2018-04-19T05:16:47.384Z,13.90
2018-04-19T05:19:14.860Z,13.90
2018-04-19T05:21:42.372Z,13.90
2018-04-19T05:24:10.637Z,14.00
2018-04-19T05:26:38.903Z,14.00
2018-04-19T05:29:06.393Z,14.00
2018-04-19T05:31:33.925Z,14.10
2018-04-19T05:34:01.404Z,14.10
2018-04-19T05:36:29.726Z,14.10
2018-04-19T05:38:57.254Z,14.10
2018-04-19T05:41:24.770Z,14.20
2018-04-19T05:43:52.352Z,14.20
2018-04-19T05:46:20.055Z,14.20
2018-04-19T05:48:47.556Z,14.30
2018-04-19T05:51:15.056Z,14.40
2018-04-19T05:53:42.529Z,14.50
2018-04-19T05:56:10.019Z,14.60
2018-04-19T05:58:37.500Z,14.70
2018-04-19T06:01:05.784Z,14.90
2018-04-19T06:03:34.034Z,15.00
2018-04-19T06:06:01.533Z,15.00
2018-04-19T06:08:29.090Z,15.10
2018-04-19T06:10:56.576Z,15.20
2018-04-19T06:13:24.105Z,15.20
2018-04-19T06:15:51.634Z,15.40
2018-04-19T06:18:19.956Z,15.50
2018-04-19T06:20:47.449Z,15.50
2018-04-19T06:23:14.963Z,15.60
2018-04-19T06:25:42.451Z,15.70
2018-04-19T06:28:09.940Z,15.80
2018-04-19T06:30:37.455Z,15.80
2018-04-19T06:33:04.939Z,15.90
2018-04-19T06:35:32.409Z,16.00
2018-04-19T06:37:59.919Z,16.10
2018-04-19T06:40:27.444Z,16.20
2018-04-19T06:42:55.706Z,16.40
2018-04-19T06:45:23.944Z,16.60
2018-04-19T06:47:51.438Z,16.50
2018-04-19T06:50:19.681Z,16.80
2018-04-19T06:52:47.173Z,16.80
2018-04-19T06:55:14.654Z,16.90
2018-04-19T06:57:42.162Z,17.00
2018-04-19T07:00:09.627Z,17.20
2018-04-19T07:02:38.801Z,17.40
2018-04-19T07:05:06.439Z,17.40
2018-04-19T07:07:33.951Z,17.50
2018-04-19T07:10:02.224Z,17.70
2018-04-19T07:12:29.786Z,17.70
2018-04-19T07:14:57.370Z,17.80
2018-04-19T07:17:25.773Z,18.00
2018-04-19T07:19:53.379Z,18.00
2018-04-19T07:22:21.011Z,18.10
2018-04-19T07:24:48.656Z,18.20
2018-04-19T07:27:16.305Z,18.30
2018-04-19T07:29:43.958Z,18.40
2018-04-19T07:32:11.548Z,18.50
2018-04-19T07:34:39.098Z,18.60
2018-04-19T07:37:06.774Z,18.70
2018-04-19T07:39:34.266Z,19.80
2018-04-19T07:42:02.529Z,19.00
2018-04-19T07:44:30.031Z,18.90
2018-04-19T07:46:57.525Z,19.00
2018-04-19T07:49:25.054Z,19.10
2018-04-19T07:51:52.555Z,19.10
2018-04-19T07:54:20.038Z,19.20
2018-04-19T07:56:48.315Z,19.40
2018-04-19T07:59:15.796Z,19.30
2018-04-19T08:01:44.037Z,19.50
2018-04-19T08:04:12.266Z,19.60
2018-04-19T08:06:39.745Z,19.60
2018-04-19T08:09:07.220Z,19.70
2018-04-19T08:11:34.703Z,19.80
2018-04-19T08:14:02.957Z,20.00
2018-04-19T08:16:31.239Z,20.00
2018-04-19T08:18:58.817Z,20.10
2018-04-19T08:21:27.121Z,20.10
2018-04-19T08:23:54.601Z,20.10
2018-04-19T08:26:22.141Z,20.20
2018-04-19T08:28:49.617Z,20.30
2018-04-19T08:31:17.158Z,20.40
2018-04-19T08:33:44.659Z,20.30
2018-04-19T08:36:12.907Z,20.50
2018-04-19T08:38:40.408Z,20.50
2018-04-19T08:41:08.685Z,20.70
2018-04-19T08:43:36.960Z,20.70
2018-04-19T08:46:05.207Z,20.80
2018-04-19T08:48:32.701Z,20.70
2018-04-19T08:51:00.991Z,20.90
2018-04-19T08:53:29.237Z,20.90
2018-04-19T08:55:56.732Z,20.90
2018-04-19T08:58:24.224Z,21.00
2018-04-19T09:00:51.727Z,21.00
2018-04-19T09:03:19.997Z,21.20
2018-04-19T09:05:48.259Z,21.20
2018-04-19T09:08:15.750Z,21.20
2018-04-19T09:10:43.223Z,21.30
2018-04-19T09:13:10.715Z,21.40
2018-04-19T09:15:38.195Z,21.40
2018-04-19T09:18:06.467Z,21.50
2018-04-19T09:20:33.939Z,21.50
2018-04-19T09:23:02.217Z,21.60
2018-04-19T09:25:29.684Z,21.60
2018-04-19T09:27:57.995Z,21.70
2018-04-19T09:30:25.460Z,21.70
2018-04-19T09:32:52.944Z,21.80
2018-04-19T09:35:20.436Z,21.80
2018-04-19T09:37:47.960Z,21.90
2018-04-19T09:40:15.448Z,21.80
2018-04-19T09:42:43.688Z,21.90
2018-04-19T09:45:11.181Z,21.90
2018-04-19T09:47:38.651Z,22.00
2018-04-19T09:50:06.163Z,22.00
2018-04-19T09:52:33.627Z,22.10
2018-04-19T09:55:01.120Z,22.10
2018-04-19T09:57:28.717Z,22.20
2018-04-19T09:59:56.215Z,22.20
2018-04-19T10:02:28.257Z,22.30
2018-04-19T10:05:02.304Z,22.30
2018-04-19T10:07:29.881Z,22.20
2018-04-19T10:09:57.391Z,22.30
2018-04-19T10:12:24.879Z,22.40
2018-04-19T10:14:52.379Z,22.50
2018-04-19T10:17:19.886Z,22.60
2018-04-19T10:19:48.137Z,22.50
2018-04-19T10:22:15.719Z,22.40
2018-04-19T10:24:43.980Z,22.50
2018-04-19T10:27:11.504Z,22.50
2018-04-19T10:29:38.996Z,22.50
2018-04-19T10:32:06.471Z,22.60
2018-04-19T10:34:34.737Z,22.80
2018-04-19T10:37:02.974Z,22.90
2018-04-19T10:39:30.517Z,22.90
2018-04-19T10:41:57.995Z,23.00
2018-04-19T10:44:25.479Z,23.00
2018-04-19T10:46:52.949Z,23.10
2018-04-19T10:49:21.211Z,23.30
2018-04-19T10:51:48.715Z,23.30
2018-04-19T10:54:16.187Z,23.50
2018-04-19T10:56:43.685Z,23.60
2018-04-19T10:59:11.162Z,23.70
2018-04-19T11:01:39.419Z,23.80
2018-04-19T11:04:06.892Z,23.80
2018-04-19T11:06:35.143Z,24.10
2018-04-19T11:09:02.613Z,24.10
2018-04-19T11:11:30.101Z,24.20
2018-04-19T11:13:57.587Z,24.30
2018-04-19T11:16:25.088Z,24.40
2018-04-19T11:18:53.319Z,24.60
2018-04-19T11:21:20.828Z,24.60
2018-04-19T11:23:49.072Z,24.90
2018-04-19T11:26:16.563Z,24.90
2018-04-19T11:28:44.803Z,25.10
2018-04-19T11:31:12.322Z,25.10
2018-04-19T11:33:39.783Z,25.20
2018-04-19T11:36:07.272Z,25.30
2018-04-19T11:38:34.746Z,25.50
2018-04-19T11:41:02.252Z,25.50
2018-04-19T11:43:29.733Z,25.70
2018-04-19T11:45:57.230Z,25.80
2018-04-19T11:48:25.494Z,26.00
2018-04-19T11:50:53.734Z,26.10
2018-04-19T11:53:21.244Z,26.00
2018-04-19T11:55:49.494Z,26.20
2018-04-19T11:58:16.975Z,26.10
2018-04-19T12:00:45.214Z,26.30
2018-04-19T12:03:12.710Z,26.30
2018-04-19T12:05:40.951Z,26.50
2018-04-19T12:08:08.498Z,26.50
2018-04-19T12:10:35.995Z,26.50
2018-04-19T12:13:04.258Z,26.50
2018-04-19T12:15:33.236Z,26.60
2018-04-19T12:18:00.769Z,26.50
2018-04-19T12:20:28.250Z,26.60
2018-04-19T12:22:55.721Z,26.80
2018-04-19T12:25:23.189Z,26.90
2018-04-19T12:27:50.744Z,27.00
2018-04-19T12:30:18.212Z,27.10
2018-04-19T12:32:46.476Z,27.10
2018-04-19T12:35:13.943Z,27.10
2018-04-19T12:37:41.544Z,27.30
2018-04-19T12:40:09.065Z,27.30
2018-04-19T12:42:37.931Z,27.30
2018-04-19T12:45:05.418Z,27.30
2018-04-19T12:47:33.691Z,27.50
2018-04-19T12:50:01.936Z,27.50
2018-04-19T12:52:29.524Z,27.60
2018-04-19T12:54:57.760Z,27.60
2018-04-19T12:57:25.241Z,27.60
2018-04-19T12:59:52.697Z,27.70
2018-04-19T13:02:20.183Z,28.00
2018-04-19T13:04:48.416Z,28.30
2018-04-19T13:07:15.938Z,28.30
2018-04-19T13:09:43.411Z,28.40
2018-04-19T13:12:10.893Z,28.50
2018-04-19T13:14:38.383Z,28.50
2018-04-19T13:17:06.615Z,29.00
2018-04-19T13:19:34.222Z,28.90
2018-04-19T13:22:02.461Z,29.40
2018-04-19T13:24:30.032Z,29.30
2018-04-19T13:26:57.499Z,29.40
2018-04-19T13:29:24.993Z,29.60
2018-04-19T13:31:52.528Z,29.80
2018-04-19T13:34:20.845Z,30.30
2018-04-19T13:36:48.319Z,30.20
2018-04-19T13:39:15.800Z,30.30
2018-04-19T13:41:43.267Z,30.30
2018-04-19T13:44:11.520Z,30.80
2018-04-19T13:46:38.991Z,30.80
2018-04-19T13:49:06.574Z,31.00
2018-04-19T13:51:34.794Z,31.50
2018-04-19T13:54:02.325Z,31.60
2018-04-19T13:56:29.811Z,32.20
2018-04-19T13:58:57.325Z,32.60
2018-04-19T14:01:25.579Z,32.80
2018-04-19T14:03:53.168Z,32.80
2018-04-19T14:06:20.710Z,33.30
2018-04-19T14:08:48.959Z,33.90
2018-04-19T14:11:16.469Z,33.90
2018-04-19T14:13:43.952Z,33.90
2018-04-19T14:16:11.471Z,34.40
2018-04-19T14:18:38.964Z,34.70
2018-04-19T14:21:06.454Z,34.90
2018-04-19T14:23:33.947Z,35.30
2018-04-19T14:26:01.419Z,35.30
2018-04-19T14:28:28.905Z,35.40
2018-04-19T14:30:56.380Z,35.70
2018-04-19T14:33:23.878Z,35.60
2018-04-19T14:35:51.356Z,35.30
2018-04-19T14:38:18.869Z,35.90
2018-04-19T14:40:46.318Z,35.90
2018-04-19T14:43:13.814Z,36.30
2018-04-19T14:45:41.268Z,36.40
2018-04-19T14:48:08.749Z,36.60
2018-04-19T14:50:36.231Z,36.60
2018-04-19T14:53:03.715Z,36.80
2018-04-19T14:55:32.041Z,37.00
2018-04-19T14:58:00.257Z,37.30
2018-04-19T15:00:27.747Z,37.30
2018-04-19T15:02:56.241Z,37.70
2018-04-19T15:05:23.715Z,37.70
2018-04-19T15:07:51.217Z,37.50
2018-04-19T15:10:19.460Z,37.70
2018-04-19T15:12:46.957Z,37.70
2018-04-19T15:15:15.187Z,38.60
2018-04-19T15:17:42.657Z,38.50
2018-04-19T15:20:10.248Z,38.80
2018-04-19T15:22:38.488Z,39.60
2018-04-19T15:25:06.088Z,39.60
2018-04-19T15:27:34.401Z,40.60
2018-04-19T15:30:01.996Z,40.70
2018-04-19T15:32:29.539Z,40.60
2018-04-19T15:34:57.115Z,41.30
2018-04-19T15:37:24.648Z,41.00
2018-04-19T15:39:52.178Z,40.60
2018-04-19T15:42:19.647Z,41.30
2018-04-19T15:44:47.125Z,41.50
2018-04-19T15:47:14.629Z,41.50
2018-04-19T15:49:42.883Z,41.30
2018-04-19T15:52:10.350Z,41.30
2018-04-19T15:54:38.609Z,42.40
2018-04-19T15:57:06.891Z,41.80
2018-04-19T15:59:34.496Z,41.80
2018-04-19T16:02:02.769Z,42.00
2018-04-19T16:04:31.008Z,41.40
2018-04-19T16:06:58.501Z,41.40
2018-04-19T16:09:26.021Z,40.60
2018-04-19T16:11:53.489Z,40.50
2018-04-19T16:14:21.755Z,37.40
2018-04-19T16:16:49.236Z,37.40
2018-04-19T16:19:17.509Z,36.40
2018-04-19T16:21:45.740Z,35.50
2018-04-19T16:24:13.231Z,35.40
2018-04-19T16:26:41.464Z,34.30
2018-04-19T16:29:08.960Z,34.20
2018-04-19T16:31:37.250Z,33.70
2018-04-19T16:34:05.504Z,33.50
2018-04-19T16:36:33.106Z,33.40
2018-04-19T16:39:00.593Z,32.80
2018-04-19T16:41:28.067Z,32.50
2018-04-19T16:43:55.552Z,32.10
2018-04-19T16:46:23.776Z,31.80
2018-04-19T16:48:51.260Z,31.70
2018-04-19T16:51:19.547Z,31.30
2018-04-19T16:53:47.825Z,31.30
2018-04-19T16:56:15.293Z,31.20
2018-04-19T16:58:43.588Z,31.00
2018-04-19T17:01:11.070Z,30.90
2018-04-19T17:03:38.551Z,30.80
2018-04-19T17:06:06.118Z,30.50
2018-04-19T17:08:33.610Z,30.60
2018-04-19T17:11:01.842Z,30.20
2018-04-19T17:13:29.324Z,30.20
2018-04-19T17:15:57.622Z,30.00
2018-04-19T17:18:25.116Z,29.90
2018-04-19T17:20:52.615Z,29.80
2018-04-19T17:23:20.116Z,29.70
2018-04-19T17:25:47.651Z,29.40
2018-04-19T17:28:15.889Z,29.20
2018-04-19T17:30:43.370Z,29.20
2018-04-19T17:33:11.652Z,29.00
2018-04-19T17:35:39.916Z,28.90
2018-04-19T17:38:08.264Z,28.70
2018-04-19T17:40:35.759Z,28.70
2018-04-19T17:43:04.088Z,28.40
2018-04-19T17:45:31.634Z,28.50
2018-04-19T17:47:59.222Z,28.40
2018-04-19T17:50:26.723Z,28.40
2018-04-19T17:52:54.977Z,28.10
2018-04-19T17:55:22.495Z,28.10
2018-04-19T17:57:49.970Z,28.00
2018-04-19T18:00:17.453Z,28.00
2018-04-19T18:02:45.125Z,27.90
2018-04-19T18:05:16.188Z,27.80
2018-04-19T18:07:43.661Z,27.80
2018-04-19T18:10:11.242Z,27.70
2018-04-19T18:12:39.600Z,27.60
2018-04-19T18:15:07.148Z,27.40
2018-04-19T18:17:34.701Z,27.20
2018-04-19T18:20:02.257Z,27.20
2018-04-19T18:22:29.764Z,27.10
2018-04-19T18:24:57.267Z,27.00
2018-04-19T18:27:25.748Z,26.80
2018-04-19T18:29:53.362Z,26.90
2018-04-19T18:32:21.052Z,26.70
2018-04-19T18:34:48.658Z,26.60
2018-04-19T18:37:16.140Z,26.60
2018-04-19T18:39:43.633Z,26.50
2018-04-19T18:42:12.196Z,26.30
2018-04-19T18:44:39.869Z,26.20
2018-04-19T18:47:08.164Z,26.10
2018-04-19T18:49:36.436Z,26.00
2018-04-19T18:52:04.722Z,25.90
2018-04-19T18:54:35.585Z,25.80
2018-04-19T18:57:03.183Z,25.80
2018-04-19T18:59:30.728Z,25.70
2018-04-19T19:01:58.290Z,25.70
2018-04-19T19:04:25.931Z,25.60
2018-04-19T19:06:53.572Z,25.80
2018-04-19T19:09:21.965Z,25.50
2018-04-19T19:11:49.594Z,25.50
2018-04-19T19:14:18.074Z,25.30
2018-04-19T19:16:46.440Z,25.20
2018-04-19T19:19:26.713Z,25.20
2018-04-19T19:21:55.014Z,25.10
2018-04-19T19:24:22.507Z,25.10
2018-04-19T19:26:49.982Z,25.00
2018-04-19T19:29:17.501Z,24.90
2018-04-19T19:31:45.749Z,24.80
2018-04-19T19:34:13.251Z,24.80
2018-04-19T19:36:40.725Z,24.70
2018-04-19T19:39:08.233Z,24.60
2018-04-19T19:41:36.460Z,24.20
2018-04-19T19:44:03.948Z,24.20
2018-04-19T19:46:31.407Z,24.10
2018-04-19T19:48:58.937Z,23.90
2018-04-19T19:51:26.407Z,23.80
2018-04-19T19:53:54.243Z,23.70
2018-04-19T19:56:21.708Z,23.50
2018-04-19T19:58:49.183Z,23.40
2018-04-19T20:01:16.766Z,23.30
2018-04-19T20:03:44.257Z,23.30
2018-04-19T20:06:11.743Z,23.20
2018-04-19T20:08:39.235Z,23.10
2018-04-19T20:11:06.722Z,23.00
2018-04-19T20:13:34.197Z,23.00
2018-04-19T20:16:01.695Z,22.90
2018-04-19T20:18:29.167Z,22.80
2018-04-19T20:20:57.440Z,22.60
2018-04-19T20:23:24.920Z,22.60
2018-04-19T20:25:53.157Z,22.50
2018-04-19T20:28:20.627Z,22.50
2018-04-19T20:30:48.119Z,22.40
2018-04-19T20:33:15.608Z,22.40
2018-04-19T20:35:43.199Z,22.30
2018-04-19T20:38:10.637Z,22.20
2018-04-19T20:40:38.132Z,22.20
2018-04-19T20:43:06.372Z,22.00
2018-04-19T20:45:33.864Z,22.00
2018-04-19T20:48:01.360Z,21.90
2018-04-19T20:50:28.922Z,21.90
2018-04-19T20:52:56.485Z,21.80
2018-04-19T20:55:24.004Z,21.80
2018-04-19T20:57:52.245Z,21.60
2018-04-19T21:00:19.732Z,21.60
2018-04-19T21:02:47.989Z,21.50
2018-04-19T21:05:15.507Z,21.50
2018-04-19T21:07:43.008Z,21.40
2018-04-19T21:10:10.508Z,21.40
2018-04-19T21:12:37.999Z,21.30
2018-04-19T21:15:05.503Z,21.30
2018-04-19T21:17:33.795Z,21.10
2018-04-19T21:20:01.345Z,21.10
2018-04-19T21:22:29.583Z,21.00
2018-04-19T21:24:57.208Z,21.00
2018-04-19T21:27:24.701Z,20.90
2018-04-19T21:29:52.219Z,20.90
2018-04-19T21:32:19.710Z,20.70
2018-04-19T21:34:47.190Z,20.70
2018-04-19T21:37:14.901Z,20.60
2018-04-19T21:39:42.385Z,20.50
2018-04-19T21:42:09.901Z,20.40
2018-04-19T21:44:37.449Z,20.40
2018-04-19T21:47:05.715Z,20.10
2018-04-19T21:49:33.288Z,20.20
2018-04-19T21:52:01.539Z,20.10
2018-04-19T21:54:29.123Z,20.10
2018-04-19T21:56:57.414Z,19.90
2018-04-19T21:59:24.904Z,19.90
2018-04-19T22:01:52.397Z,19.90
2018-04-19T22:04:19.880Z,19.80
2018-04-19T22:06:47.379Z,19.70
2018-04-19T22:09:14.897Z,19.80
2018-04-19T22:11:42.421Z,19.70
2018-04-19T22:14:09.888Z,19.60
2018-04-19T22:16:37.444Z,19.60
2018-04-19T22:19:04.927Z,19.60
2018-04-19T22:21:32.469Z,19.50
2018-04-19T22:24:00.732Z,19.40
2018-04-19T22:26:29.747Z,19.20
2018-04-19T22:28:58.003Z,19.20
2018-04-19T22:31:26.277Z,19.20
2018-04-19T22:33:53.752Z,19.20
2018-04-19T22:36:22.953Z,19.10
2018-04-19T22:38:51.207Z,19.10
2018-04-19T22:41:19.455Z,19.00
2018-04-19T22:43:46.973Z,19.00
2018-04-19T22:46:14.424Z,19.00
2018-04-19T22:48:42.670Z,18.90
2018-04-19T22:51:10.173Z,18.90
2018-04-19T22:53:37.660Z,18.80
2018-04-19T22:56:05.197Z,18.70
2018-04-19T22:58:32.675Z,18.60
2018-04-19T23:01:00.159Z,18.60
2018-04-19T23:03:27.649Z,18.60
2018-04-19T23:05:55.230Z,18.60
2018-04-19T23:08:22.688Z,18.50
2018-04-19T23:10:50.172Z,18.50
2018-04-19T23:13:17.643Z,18.40
2018-04-19T23:15:45.153Z,18.30
2018-04-19T23:18:12.637Z,18.30
2018-04-19T23:20:40.129Z,18.30
2018-04-19T23:23:07.597Z,18.20
2018-04-19T23:25:35.860Z,18.20
2018-04-19T23:28:04.220Z,18.00
2018-04-19T23:30:31.763Z,18.00
2018-04-19T23:32:59.187Z,17.90
2018-04-19T23:35:26.722Z,17.90
2018-04-19T23:37:54.199Z,17.90
2018-04-19T23:40:21.678Z,17.90
2018-04-19T23:42:49.163Z,17.80
2018-04-19T23:45:16.656Z,17.80
2018-04-19T23:47:44.891Z,17.60
2018-04-19T23:50:12.412Z,17.50
2018-04-19T23:52:39.887Z,17.60
2018-04-19T23:55:07.396Z,17.50
2018-04-19T23:57:35.645Z,17.40
